createdAt,value
2018-08-11T00:00:50.860Z,97932.57
2018-08-11T00:03:19.515Z,97924.25
2018-08-11T00:05:48.396Z,97928.37
2018-08-11T00:08:17.107Z,97929.28
2018-08-11T00:10:45.893Z,97931.39
2018-08-11T00:13:14.655Z,97923.91
2018-08-11T00:15:43.323Z,97924.00
2018-08-11T00:18:12.024Z,97925.95
2018-08-11T00:20:40.809Z,97920.37
2018-08-11T00:23:09.452Z,97921.27
2018-08-11T00:25:38.172Z,97927.56
2018-08-11T00:28:07.296Z,97927.56
2018-08-11T00:30:35.993Z,97932.97
2018-08-11T00:33:05.063Z,97926.56
2018-08-11T00:35:33.743Z,97931.34
2018-08-11T00:38:02.443Z,97934.91
2018-08-11T00:40:31.071Z,97932.13
2018-08-11T00:42:59.964Z,97929.61
2018-08-11T00:45:28.547Z,97935.75
2018-08-11T00:47:57.580Z,97936.89
2018-08-11T00:50:30.632Z,97935.68
2018-08-11T00:52:59.225Z,97945.10
2018-08-11T00:55:27.912Z,97937.13
2018-08-11T00:57:56.745Z,97936.83
2018-08-11T01:00:25.512Z,97935.61
2018-08-11T01:02:54.230Z,97934.75
2018-08-11T01:05:22.903Z,97939.97
2018-08-11T01:07:52.279Z,97940.88
2018-08-11T01:10:20.947Z,97939.70
2018-08-11T01:12:50.131Z,97950.40
2018-08-11T01:15:20.524Z,97946.73
2018-08-11T01:17:50.117Z,97943.06
2018-08-11T01:20:19.207Z,97940.64
2018-08-11T01:22:48.489Z,97938.88
2018-08-11T01:25:17.543Z,97945.84
2018-08-11T01:27:46.208Z,97942.09
2018-08-11T01:30:16.463Z,97941.99
2018-08-11T01:32:45.198Z,97944.00
2018-08-11T01:35:14.028Z,97941.95
2018-08-11T01:37:43.570Z,97943.45
2018-08-11T01:40:13.401Z,97941.34
2018-08-11T01:42:43.399Z,97943.20
2018-08-11T01:45:12.723Z,97943.11
2018-08-11T01:47:41.900Z,97942.31
2018-08-11T01:50:11.797Z,97943.55
2018-08-11T01:52:42.044Z,97942.37
2018-08-11T01:55:12.267Z,97943.31
2018-08-11T01:57:41.297Z,97938.42
2018-08-11T02:00:11.888Z,97939.33
2018-08-11T02:02:41.079Z,97941.27
2018-08-11T02:05:10.899Z,97938.50
2018-08-11T02:07:40.895Z,97938.11
2018-08-11T02:10:13.988Z,97943.58
2018-08-11T02:12:42.663Z,97946.47
2018-08-11T02:15:12.807Z,97944.24
2018-08-11T02:17:41.503Z,97938.39
2018-08-11T02:20:13.023Z,97939.84
2018-08-11T02:22:42.696Z,97939.56
2018-08-11T02:25:11.434Z,97944.39
2018-08-11T02:27:40.422Z,97943.11
2018-08-11T02:30:11.283Z,97940.47
2018-08-11T02:32:40.360Z,97936.37
2018-08-11T02:35:09.863Z,97943.21
2018-08-11T02:37:39.095Z,97944.11
2018-08-11T02:40:09.491Z,97941.84
2018-08-11T02:42:38.244Z,97941.15
2018-08-11T02:45:07.656Z,97943.83
2018-08-11T02:47:36.254Z,97941.44
2018-08-11T02:50:06.705Z,97944.27
2018-08-11T02:52:35.364Z,97942.77
2018-08-11T02:55:04.160Z,97945.83
2018-08-11T02:57:32.980Z,97943.37
2018-08-11T03:00:01.516Z,97944.36
2018-08-11T03:02:30.124Z,97950.48
2018-08-11T03:04:58.947Z,97948.16
2018-08-11T03:07:27.571Z,97947.20
2018-08-11T03:09:56.166Z,97945.25
2018-08-11T03:12:24.932Z,97947.97
2018-08-11T03:14:53.635Z,97950.41
2018-08-11T03:17:22.216Z,97950.58
2018-08-11T03:19:50.965Z,97952.17
2018-08-11T03:22:19.615Z,97949.48
2018-08-11T03:24:48.275Z,97949.61
2018-08-11T03:27:17.307Z,97945.64
2018-08-11T03:29:46.387Z,97950.48
2018-08-11T03:32:15.156Z,97952.97
2018-08-11T03:34:44.188Z,97952.00
2018-08-11T03:37:12.840Z,97950.21
2018-08-11T03:39:41.411Z,97948.47
2018-08-11T03:42:10.270Z,97942.95
2018-08-11T03:44:38.831Z,97956.34
2018-08-11T03:47:07.531Z,97955.22
2018-08-11T03:49:36.622Z,97967.56
2018-08-11T03:52:05.406Z,97964.03
2018-08-11T03:54:34.039Z,97967.03
2018-08-11T03:57:02.998Z,97965.84
2018-08-11T03:59:31.607Z,97970.42
2018-08-11T04:02:00.188Z,97972.39
2018-08-11T04:04:29.140Z,97972.59
2018-08-11T04:06:57.837Z,97973.04
2018-08-11T04:09:26.659Z,97977.95
2018-08-11T04:11:55.275Z,97982.61
2018-08-11T04:14:23.847Z,97986.90
2018-08-11T04:16:52.788Z,97977.86
2018-08-11T04:19:21.500Z,97988.08
2018-08-11T04:21:50.084Z,97991.08
2018-08-11T04:24:18.671Z,97990.28
2018-08-11T04:26:47.619Z,97993.83
2018-08-11T04:29:16.157Z,97988.86
2018-08-11T04:31:44.720Z,97988.41
2018-08-11T04:34:13.468Z,97998.25
2018-08-11T04:36:42.108Z,97996.91
2018-08-11T04:39:10.635Z,97991.12
2018-08-11T04:41:39.931Z,97993.38
2018-08-11T04:44:08.571Z,97992.38
2018-08-11T04:46:37.152Z,97993.51
2018-08-11T04:49:05.827Z,97992.30
2018-08-11T04:51:34.416Z,97993.64
2018-08-11T04:54:03.103Z,98000.56
2018-08-11T04:56:31.955Z,97998.52
2018-08-11T04:59:00.584Z,98004.17
2018-08-11T05:01:29.173Z,98003.67
2018-08-11T05:03:58.004Z,98008.45
2018-08-11T05:06:26.699Z,98014.05
2018-08-11T05:08:55.357Z,98015.06
2018-08-11T05:11:24.071Z,98025.21
2018-08-11T05:13:52.833Z,98024.23
2018-08-11T05:16:21.375Z,98027.06
2018-08-11T05:18:50.123Z,98027.80
2018-08-11T05:21:18.788Z,98028.18
2018-08-11T05:23:47.340Z,98032.42
2018-08-11T05:26:15.974Z,98034.98
2018-08-11T05:28:44.675Z,98032.91
2018-08-11T05:31:13.288Z,98037.25
2018-08-11T05:33:41.940Z,98038.66
2018-08-11T05:36:10.560Z,98046.62
2018-08-11T05:38:39.163Z,98036.87
2018-08-11T05:41:07.982Z,98040.95
2018-08-11T05:43:36.682Z,98046.78
2018-08-11T05:46:05.447Z,98048.84
2018-08-11T05:48:34.159Z,98044.56
2018-08-11T05:51:02.786Z,98048.73
2018-08-11T05:53:31.360Z,98051.13
2018-08-11T05:56:00.287Z,98056.25
2018-08-11T05:58:29.055Z,98054.45
2018-08-11T06:00:57.632Z,98057.61
2018-08-11T06:03:26.435Z,98054.91
2018-08-11T06:05:55.064Z,98057.43
2018-08-11T06:08:23.717Z,98061.91
2018-08-11T06:10:52.321Z,98060.84
2018-08-11T06:13:20.975Z,98063.16
2018-08-11T06:15:49.699Z,98062.60
2018-08-11T06:18:18.346Z,98065.36
2018-08-11T06:20:47.007Z,98063.16
2018-08-11T06:23:15.652Z,98071.09
2018-08-11T06:25:44.315Z,98070.02
2018-08-11T06:28:12.967Z,98069.55
2018-08-11T06:30:41.663Z,98064.90
2018-08-11T06:33:10.505Z,98061.88
2018-08-11T06:35:41.226Z,98061.32
2018-08-11T06:38:10.262Z,98062.23
2018-08-11T06:40:42.667Z,98058.11
2018-08-11T06:43:15.241Z,98058.91
2018-08-11T06:45:45.687Z,98062.38
2018-08-11T06:48:18.336Z,98060.44
2018-08-11T06:50:48.389Z,98066.89
2018-08-11T06:53:21.151Z,98066.89
2018-08-11T06:55:52.143Z,98058.22
2018-08-11T06:58:24.261Z,98057.91
2018-08-11T07:00:56.865Z,98059.09
2018-08-11T07:03:30.231Z,98068.11
2018-08-11T07:06:00.254Z,98054.16
2018-08-11T07:08:33.168Z,98054.62
2018-08-11T07:11:05.773Z,98056.59
2018-08-11T07:13:37.298Z,98048.17
2018-08-11T07:16:08.449Z,98050.19
2018-08-11T07:18:42.360Z,98053.26
2018-08-11T07:21:14.525Z,98052.21
2018-08-11T07:23:43.424Z,98056.14
2018-08-11T07:26:15.680Z,98047.52
2018-08-11T07:28:48.695Z,98057.63
2018-08-11T07:31:19.956Z,98061.05
2018-08-11T07:33:50.804Z,98062.41
2018-08-11T07:36:23.157Z,98054.91
2018-08-11T07:38:54.860Z,98055.19
2018-08-11T07:41:24.876Z,98055.46
2018-08-11T07:43:57.339Z,98050.78
2018-08-11T07:46:28.882Z,98055.17
2018-08-11T07:49:02.324Z,98046.27
2018-08-11T07:51:34.083Z,98044.91
2018-08-11T07:54:04.716Z,98056.83
2018-08-11T07:56:35.734Z,98052.73
2018-08-11T07:59:08.187Z,98058.00
2018-08-11T08:01:40.029Z,98052.77
2018-08-11T08:04:12.154Z,98041.86
2018-08-11T08:06:40.892Z,98048.13
2018-08-11T08:09:15.675Z,98050.53
2018-08-11T08:11:47.544Z,98045.30
2018-08-11T08:14:18.234Z,98041.95
2018-08-11T08:16:48.597Z,98041.02
2018-08-11T08:19:20.380Z,98044.16
2018-08-11T08:21:50.212Z,98038.72
2018-08-11T08:24:22.830Z,98029.81
2018-08-11T08:26:55.707Z,98040.00
2018-08-11T08:29:27.700Z,98038.32
2018-08-11T08:32:00.465Z,98034.63
2018-08-11T08:34:32.148Z,98033.33
2018-08-11T08:37:05.359Z,98033.52
2018-08-11T08:39:38.056Z,98034.33
2018-08-11T08:42:08.461Z,98035.30
2018-08-11T08:44:41.836Z,98032.84
2018-08-11T08:47:15.274Z,98037.56
2018-08-11T08:49:44.286Z,98039.08
2018-08-11T08:52:17.409Z,98044.59
2018-08-11T08:54:49.354Z,98034.92
2018-08-11T08:57:20.046Z,98036.00
2018-08-11T08:59:52.264Z,98035.76
2018-08-11T09:02:24.949Z,98031.51
2018-08-11T09:04:56.062Z,98040.88
2018-08-11T09:07:29.271Z,98037.82
2018-08-11T09:10:02.513Z,98030.18
2018-08-11T09:12:34.124Z,98030.83
2018-08-11T09:15:06.873Z,98035.05
2018-08-11T09:17:38.428Z,98032.36
2018-08-11T09:20:12.314Z,98038.30
2018-08-11T09:22:48.353Z,98034.55
2018-08-11T09:25:21.010Z,98029.80
2018-08-11T09:27:55.054Z,98034.50
2018-08-11T09:30:31.493Z,98039.87
2018-08-11T09:33:07.187Z,98032.97
2018-08-11T09:35:40.895Z,98040.65
2018-08-11T09:38:21.685Z,98035.74
2018-08-11T09:40:51.432Z,98035.63
2018-08-11T09:43:20.731Z,98041.56
2018-08-11T09:45:50.358Z,98038.00
2018-08-11T09:48:19.091Z,98036.01
2018-08-11T09:50:48.167Z,98020.55
2018-08-11T09:53:18.457Z,98027.81
2018-08-11T09:55:47.168Z,98017.39
2018-08-11T09:58:16.096Z,98026.10
2018-08-11T10:00:53.912Z,98021.62
2018-08-11T10:03:22.971Z,98018.45
2018-08-11T10:05:51.684Z,98025.63
2018-08-11T10:08:22.323Z,98019.45
2018-08-11T10:10:50.955Z,98017.98
2018-08-11T10:13:19.691Z,98020.48
2018-08-11T10:15:48.879Z,98023.61
2018-08-11T10:18:20.687Z,98016.98
2018-08-11T10:20:49.583Z,98011.07
2018-08-11T10:23:18.147Z,98013.03
2018-08-11T10:25:46.851Z,98022.73
2018-08-11T10:28:15.995Z,98013.75
2018-08-11T10:30:44.652Z,98021.77
2018-08-11T10:33:13.309Z,98027.17
2018-08-11T10:35:42.048Z,98021.38
2018-08-11T10:38:11.258Z,98014.39
2018-08-11T10:40:39.952Z,98024.86
2018-08-11T10:43:09.723Z,98010.86
2018-08-11T10:45:38.513Z,98013.86
2018-08-11T10:48:07.244Z,98013.08
2018-08-11T10:50:35.867Z,98012.23
2018-08-11T10:53:04.550Z,98008.34
2018-08-11T10:55:33.220Z,98005.20
2018-08-11T10:58:02.004Z,98007.69
2018-08-11T11:00:31.028Z,98013.44
2018-08-11T11:03:03.323Z,98009.31
2018-08-11T11:05:31.855Z,98006.99
2018-08-11T11:08:00.507Z,98014.03
2018-08-11T11:10:29.179Z,98012.57
2018-08-11T11:12:57.852Z,98002.25
2018-08-11T11:15:26.504Z,98003.73
2018-08-11T11:17:55.099Z,98000.88
2018-08-11T11:20:23.938Z,98001.39
2018-08-11T11:22:52.569Z,97997.52
2018-08-11T11:25:21.241Z,97991.59
2018-08-11T11:27:49.799Z,97995.74
2018-08-11T11:30:18.438Z,97986.57
2018-08-11T11:32:47.088Z,97979.83
2018-08-11T11:35:15.744Z,97974.95
2018-08-11T11:37:44.315Z,97972.26
2018-08-11T11:40:13.304Z,97974.73
2018-08-11T11:42:42.014Z,97972.68
2018-08-11T11:45:10.683Z,97988.59
2018-08-11T11:47:39.559Z,97971.30
2018-08-11T11:50:08.395Z,97980.54
2018-08-11T11:52:37.119Z,97979.94
2018-08-11T11:55:06.239Z,97970.92
2018-08-11T11:57:34.862Z,97978.69
2018-08-11T12:00:03.605Z,97976.70
2018-08-11T12:02:32.172Z,97980.92
2018-08-11T12:05:00.884Z,97973.06
2018-08-11T12:07:29.708Z,97975.72
2018-08-11T12:09:58.656Z,97972.45
2018-08-11T12:12:28.042Z,97969.88
2018-08-11T12:14:56.708Z,97961.83
2018-08-11T12:17:25.414Z,97965.53
2018-08-11T12:19:54.131Z,97963.98
2018-08-11T12:22:22.868Z,97966.06
2018-08-11T12:24:52.785Z,97959.89
2018-08-11T12:27:21.366Z,97958.19
2018-08-11T12:29:50.046Z,97951.17
2018-08-11T12:32:18.988Z,97953.29
2018-08-11T12:34:47.684Z,97944.95
2018-08-11T12:37:16.327Z,97942.11
2018-08-11T12:39:45.084Z,97937.19
2018-08-11T12:42:13.667Z,97951.58
2018-08-11T12:44:42.483Z,97940.97
2018-08-11T12:47:11.751Z,97939.34
2018-08-11T12:49:40.425Z,97941.70
2018-08-11T12:52:09.243Z,97942.30
2018-08-11T12:54:37.870Z,97937.05
2018-08-11T12:57:06.532Z,97939.05
2018-08-11T12:59:35.454Z,97933.69
2018-08-11T13:02:04.103Z,97922.33
2018-08-11T13:04:32.832Z,97935.70
2018-08-11T13:07:01.679Z,97930.67
2018-08-11T13:09:30.264Z,97920.24
2018-08-11T13:11:58.896Z,97924.42
2018-08-11T13:14:27.571Z,97920.02
2018-08-11T13:16:56.449Z,97914.49
2018-08-11T13:19:25.726Z,97916.20
2018-08-11T13:21:54.457Z,97915.69
2018-08-11T13:24:23.529Z,97920.58
2018-08-11T13:26:52.168Z,97911.77
2018-08-11T13:29:20.900Z,97907.77
2018-08-11T13:31:49.796Z,97915.17
2018-08-11T13:34:18.489Z,97918.95
2018-08-11T13:36:48.444Z,97916.52
2018-08-11T13:39:17.287Z,97901.94
2018-08-11T13:41:47.707Z,97903.88
2018-08-11T13:44:17.530Z,97898.73
2018-08-11T13:46:46.391Z,97898.44
2018-08-11T13:49:15.298Z,97898.47
2018-08-11T13:51:44.115Z,97894.76
2018-08-11T13:54:12.933Z,97892.69
2018-08-11T13:56:41.904Z,97891.55
2018-08-11T13:59:10.772Z,97889.31
2018-08-11T14:01:39.475Z,97888.42
2018-08-11T14:04:08.673Z,97890.56
2018-08-11T14:06:37.531Z,97897.75
2018-08-11T14:09:07.903Z,97895.91
2018-08-11T14:11:36.663Z,97905.78
2018-08-11T14:14:05.624Z,97893.89
2018-08-11T14:16:34.292Z,97895.42
2018-08-11T14:19:03.004Z,97888.28
2018-08-11T14:21:31.968Z,97887.31
2018-08-11T14:24:00.551Z,97890.84
2018-08-11T14:26:29.488Z,97887.80
2018-08-11T14:28:58.128Z,97891.45
2018-08-11T14:31:26.699Z,97893.40
2018-08-11T14:33:55.268Z,97888.55
2018-08-11T14:36:23.972Z,97880.73
2018-08-11T14:38:52.720Z,97885.14
2018-08-11T14:41:21.583Z,97877.97
2018-08-11T14:43:50.144Z,97884.56
2018-08-11T14:46:18.743Z,97880.76
2018-08-11T14:48:47.639Z,97867.25
2018-08-11T14:51:16.356Z,97879.80
2018-08-11T14:53:44.995Z,97871.66
2018-08-11T14:56:13.812Z,97867.19
2018-08-11T14:58:42.522Z,97867.78
2018-08-11T15:01:11.163Z,97865.80
2018-08-11T15:03:40.104Z,97859.02
2018-08-11T15:06:08.655Z,97856.64
2018-08-11T15:08:37.412Z,97859.22
2018-08-11T15:11:06.033Z,97862.40
2018-08-11T15:13:34.684Z,97850.09
2018-08-11T15:16:03.401Z,97853.59
2018-08-11T15:18:32.192Z,97844.45
2018-08-11T15:21:00.856Z,97844.78
2018-08-11T15:23:29.589Z,97848.44
2018-08-11T15:25:58.332Z,97837.27
2018-08-11T15:28:27.012Z,97831.83
2018-08-11T15:30:55.895Z,97842.63
2018-08-11T15:33:24.749Z,97849.50
2018-08-11T15:35:53.423Z,97839.87
2018-08-11T15:38:22.117Z,97839.46
2018-08-11T15:40:50.975Z,97836.58
2018-08-11T15:43:19.587Z,97841.23
2018-08-11T15:45:48.323Z,97833.02
2018-08-11T15:48:16.927Z,97831.77
2018-08-11T15:50:45.775Z,97836.22
2018-08-11T15:53:14.542Z,97829.84
2018-08-11T15:55:43.408Z,97825.34
2018-08-11T15:58:12.110Z,97828.89
2018-08-11T16:00:40.784Z,97818.66
2018-08-11T16:03:09.598Z,97813.21
2018-08-11T16:05:38.210Z,97819.59
2018-08-11T16:08:06.975Z,97817.40
2018-08-11T16:10:35.831Z,97813.61
2018-08-11T16:13:04.508Z,97820.08
2018-08-11T16:15:33.386Z,97814.62
2018-08-11T16:18:02.576Z,97818.90
2018-08-11T16:20:31.171Z,97824.30
2018-08-11T16:22:59.867Z,97809.09
2018-08-11T16:25:28.654Z,97813.23
2018-08-11T16:27:57.567Z,97821.63
2018-08-11T16:30:26.211Z,97815.55
2018-08-11T16:32:55.120Z,97810.62
2018-08-11T16:35:23.655Z,97819.11
2018-08-11T16:37:52.252Z,97808.72
2018-08-11T16:40:21.132Z,97814.14
2018-08-11T16:42:49.812Z,97818.85
2018-08-11T16:45:18.556Z,97812.61
2018-08-11T16:47:47.360Z,97804.66
2018-08-11T16:50:15.895Z,97817.92
2018-08-11T16:52:44.565Z,97820.63
2018-08-11T16:55:13.499Z,97818.53
2018-08-11T16:57:42.417Z,97826.46
2018-08-11T17:00:12.926Z,97816.51
2018-08-11T17:02:42.103Z,97820.96
2018-08-11T17:05:10.779Z,97819.30
2018-08-11T17:07:39.508Z,97824.78
2018-08-11T17:10:09.374Z,97824.64
2018-08-11T17:12:38.498Z,97825.87
2018-08-11T17:15:07.516Z,97833.50
2018-08-11T17:17:36.164Z,97829.36
2018-08-11T17:20:05.588Z,97828.09
2018-08-11T17:22:34.322Z,97828.65
2018-08-11T17:25:03.986Z,97824.12
2018-08-11T17:27:33.199Z,97830.02
2018-08-11T17:30:01.822Z,97825.00
2018-08-11T17:32:30.748Z,97831.20
2018-08-11T17:34:59.652Z,97830.01
2018-08-11T17:37:28.296Z,97829.91
2018-08-11T17:39:57.016Z,97830.36
2018-08-11T17:42:25.916Z,97832.09
2018-08-11T17:44:54.651Z,97832.61
2018-08-11T17:47:23.573Z,97832.92
2018-08-11T17:49:52.561Z,97831.05
2018-08-11T17:52:21.128Z,97830.59
2018-08-11T17:54:50.050Z,97831.09
2018-08-11T17:57:19.046Z,97833.94
2018-08-11T17:59:47.600Z,97832.96
2018-08-11T18:02:16.356Z,97832.18
2018-08-11T18:04:45.507Z,97830.16
2018-08-11T18:07:14.527Z,97827.45
2018-08-11T18:09:43.283Z,97822.25
2018-08-11T18:12:12.123Z,97828.43
2018-08-11T18:14:40.771Z,97829.15
2018-08-11T18:17:09.403Z,97828.50
2018-08-11T18:19:40.383Z,97833.12
2018-08-11T18:22:09.051Z,97830.56
2018-08-11T18:24:37.785Z,97831.19
2018-08-11T18:27:06.760Z,97834.86
2018-08-11T18:29:35.421Z,97830.08
2018-08-11T18:32:04.140Z,97836.20
2018-08-11T18:34:33.076Z,97837.61
2018-08-11T18:37:01.777Z,97831.91
2018-08-11T18:39:30.367Z,97832.38
2018-08-11T18:41:59.080Z,97842.91
2018-08-11T18:44:27.740Z,97838.95
2018-08-11T18:46:56.300Z,97838.69
2018-08-11T18:49:24.979Z,97845.38
2018-08-11T18:51:53.733Z,97846.57
2018-08-11T18:54:22.379Z,97844.41
2018-08-11T18:56:51.061Z,97849.33
2018-08-11T18:59:19.624Z,97848.51
2018-08-11T19:01:49.042Z,97852.33
2018-08-11T19:04:18.150Z,97845.18
2018-08-11T19:06:47.089Z,97851.72
2018-08-11T19:09:15.776Z,97848.89
2018-08-11T19:11:44.539Z,97854.95
2018-08-11T19:14:13.374Z,97862.92
2018-08-11T19:16:42.244Z,97863.83
2018-08-11T19:19:11.095Z,97868.27
2018-08-11T19:21:39.812Z,97864.47
2018-08-11T19:24:08.644Z,97871.35
2018-08-11T19:26:37.505Z,97867.59
2018-08-11T19:29:06.545Z,97866.83
2018-08-11T19:31:35.324Z,97867.50
2018-08-11T19:34:04.448Z,97869.23
2018-08-11T19:36:33.128Z,97874.22
2018-08-11T19:39:01.960Z,97880.97
2018-08-11T19:41:30.695Z,97877.53
2018-08-11T19:43:59.455Z,97878.33
2018-08-11T19:46:28.347Z,97881.70
2018-08-11T19:48:57.281Z,97875.84
2018-08-11T19:51:25.883Z,97877.77
2018-08-11T19:53:54.592Z,97881.59
2018-08-11T19:56:23.378Z,97878.61
2018-08-11T19:58:51.995Z,97875.50
2018-08-11T20:01:20.728Z,97879.90
2018-08-11T20:03:49.476Z,97879.03
2018-08-11T20:06:18.319Z,97880.27
2018-08-11T20:08:47.113Z,97883.68
2018-08-11T20:11:16.322Z,97882.34
2018-08-11T20:13:45.116Z,97877.44
2018-08-11T20:16:13.715Z,97885.11
2018-08-11T20:18:42.537Z,97886.34
2018-08-11T20:21:11.403Z,97884.91
2018-08-11T20:23:40.336Z,97884.11
2018-08-11T20:26:09.000Z,97885.27
2018-08-11T20:28:37.653Z,97883.74
2018-08-11T20:31:06.338Z,97891.48
2018-08-11T20:33:35.183Z,97888.13
2018-08-11T20:36:03.984Z,97893.55
2018-08-11T20:38:33.008Z,97884.75
2018-08-11T20:41:02.484Z,97888.91
2018-08-11T20:43:31.252Z,97884.13
2018-08-11T20:46:00.102Z,97881.50
2018-08-11T20:48:29.079Z,97885.70
2018-08-11T20:50:57.822Z,97881.43
2018-08-11T20:53:26.612Z,97881.97
2018-08-11T20:55:55.391Z,97884.13
2018-08-11T20:58:24.079Z,97884.84
2018-08-11T21:00:52.736Z,97890.09
2018-08-11T21:03:21.443Z,97890.75
2018-08-11T21:05:51.376Z,97890.14
2018-08-11T21:08:21.001Z,97886.13
2018-08-11T21:10:51.041Z,97888.97
2018-08-11T21:13:20.311Z,97889.91
2018-08-11T21:15:49.056Z,97889.34
2018-08-11T21:18:17.739Z,97891.18
2018-08-11T21:20:46.491Z,97888.80
2018-08-11T21:23:15.237Z,97887.25
2018-08-11T21:25:43.925Z,97888.80
2018-08-11T21:28:12.556Z,97886.38
2018-08-11T21:30:41.791Z,97888.78
2018-08-11T21:33:10.456Z,97888.52
2018-08-11T21:35:39.226Z,97894.36
2018-08-11T21:38:08.356Z,97893.18
2018-08-11T21:40:42.160Z,97889.52
2018-08-11T21:43:11.059Z,97890.96
2018-08-11T21:45:39.889Z,97888.76
2018-08-11T21:48:08.727Z,97887.03
2018-08-11T21:50:37.632Z,97891.96
2018-08-11T21:53:06.449Z,97885.91
2018-08-11T21:55:35.387Z,97882.80
2018-08-11T21:58:04.133Z,97881.48
2018-08-11T22:00:36.576Z,97879.48
2018-08-11T22:03:07.251Z,97873.49
2018-08-11T22:05:36.359Z,97877.23
2018-08-11T22:08:06.031Z,97878.59
2018-08-11T22:10:35.688Z,97878.35
2018-08-11T22:13:04.889Z,97878.84
2018-08-11T22:15:35.080Z,97874.58
2018-08-11T22:18:04.608Z,97876.86
2018-08-11T22:20:34.713Z,97872.63
2018-08-11T22:23:04.590Z,97870.84
2018-08-11T22:25:33.211Z,97872.86
2018-08-11T22:28:02.997Z,97869.53
2018-08-11T22:30:32.644Z,97870.53
2018-08-11T22:33:02.151Z,97866.57
2018-08-11T22:35:32.074Z,97873.59
2018-08-11T22:38:01.828Z,97874.66
2018-08-11T22:40:30.712Z,97868.59
2018-08-11T22:43:00.507Z,97872.29
2018-08-11T22:45:29.321Z,97876.30
2018-08-11T22:47:58.308Z,97866.77
2018-08-11T22:50:27.302Z,97869.95
2018-08-11T22:52:56.179Z,97870.57
2018-08-11T22:55:25.359Z,97874.00
2018-08-11T22:57:54.280Z,97866.20
2018-08-11T23:00:23.264Z,97861.76
2018-08-11T23:02:52.065Z,97859.97
2018-08-11T23:05:21.859Z,97856.52
2018-08-11T23:07:50.501Z,97853.89
2018-08-11T23:10:19.623Z,97855.72
2018-08-11T23:12:48.616Z,97852.96
2018-08-11T23:15:20.268Z,97844.55
2018-08-11T23:17:50.225Z,97851.04
2018-08-11T23:20:19.401Z,97849.81
2018-08-11T23:22:48.212Z,97842.52
2018-08-11T23:25:17.917Z,97830.13
2018-08-11T23:27:47.199Z,97837.11
2018-08-11T23:30:18.221Z,97840.14
2018-08-11T23:32:47.688Z,97835.45
2018-08-11T23:35:16.762Z,97836.13
2018-08-11T23:37:46.160Z,97837.43
2018-08-11T23:40:15.772Z,97830.75
2018-08-11T23:42:45.184Z,97824.48
2018-08-11T23:45:16.017Z,97821.70
2018-08-11T23:47:44.779Z,97822.23
2018-08-11T23:50:14.483Z,97826.95
2018-08-11T23:52:44.100Z,97829.66
2018-08-11T23:55:14.211Z,97834.45
2018-08-11T23:57:42.967Z,97828.52
